Time;durP1;ratioP1;P1;durP2;ratioP2;P2;SDS_P1;SDS_P2;PMS_P1;PMS_P2;Temp;Humidity;BMP_temperature;BMP_pressure;BME280_temperature;BME280_humidity;BME280_pressure;Samples;Min_cycle;Max_cycle;Signal;HPM_P1;HPM_P2
2024/01/14 07:01:49;;;;;;;3.22;2.92;;;2.80;99.90;5.10;101004.00;;;;6246512;22;1506204;-76
2024/01/14 07:04:47;;;;;;;2.20;2.00;;;3.00;99.90;3.10;100977.00;;;;6283119;22;20167;-76
2024/01/14 07:07:45;;;;;;;13.53;7.40;;;2.50;99.90;3.60;100979.00;;;;6299808;22;20159;-76
2024/01/14 07:10:37;;;;;;;0.40;0.40;;;2.30;99.90;3.90;100972.00;;;;6281615;22;20156;-76
2024/01/14 07:13:46;;;;;;;3.20;1.23;;;2.20;99.90;5.20;100942.00;;;;6281945;22;20160;-76
2024/01/14 07:17:02;;;;;;;1.43;1.33;;;2.70;99.90;4.40;100978.00;;;;6281676;22;20160;-77
2024/01/14 07:20:11;;;;;;;1.13;1.13;;;2.70;99.90;4.60;100898.00;;;;6283759;22;20182;-76
2024/01/14 07:23:06;;;;;;;2.30;2.10;;;2.60;99.90;5.50;100972.00;;;;6281530;22;20269;-77
2024/01/14 07:25:43;;;;;;;2.33;2.23;;;2.70;99.90;4.70;100984.00;;;;6281698;22;20157;-76
2024/01/14 07:28:54;;;;;;;4.30;2.97;;;2.90;99.90;4.70;100999.00;;;;6307731;22;20201;-76
2024/01/14 07:31:53;;;;;;;4.10;3.70;;;2.70;99.90;4.20;100923.00;;;;6282952;22;20172;-74
2024/01/14 07:34:48;;;;;;;9.00;3.20;;;2.50;99.90;3.80;100991.00;;;;6298615;22;20240;-74
2024/01/14 07:37:54;;;;;;;5.93;4.73;;;2.30;99.90;3.60;100960.00;;;;6297655;22;20285;-74
2024/01/14 07:40:43;;;;;;;17.10;10.73;;;2.10;99.90;3.70;100989.00;;;;6305183;22;20526;-73
2024/01/14 07:43:32;;;;;;;2.47;1.53;;;2.50;99.90;2.80;100979.00;;;;6305974;22;20262;-74
2024/01/14 07:46:18;;;;;;;17.57;7.63;;;2.10;99.90;3.40;100985.00;;;;6218352;23;20172;-74
2024/01/14 07:49:13;;;;;;;2.30;1.17;;;2.10;99.90;3.50;100981.00;;;;6281142;22;20190;-75
2024/01/14 07:52:22;;;;;;;4.20;3.90;;;2.20;99.90;4.70;100991.00;;;;6280413;22;20197;-75
2024/01/14 07:55:02;;;;;;;15.33;9.37;;;2.30;99.90;3.90;100977.00;;;;6307236;22;20185;-75
2024/01/14 07:57:45;;;;;;;0.47;0.47;;;2.50;99.90;4.10;100981.00;;;;6307265;22;20171;-74
2024/01/14 08:00:57;;;;;;;3.87;2.77;;;2.40;99.90;2.60;100987.00;;;;6306044;22;20597;-74
2024/01/14 08:03:52;;;;;;;9.57;8.13;;;2.10;99.90;2.80;100942.00;;;;6282141;22;20172;-74
2024/01/14 08:06:32;;;;;;;10.83;7.13;;;2.00;99.90;3.20;100947.00;;;;6281721;22;20168;-73
2024/01/14 08:09:12;;;;;;;14.53;9.13;;;2.10;99.90;3.00;100977.00;;;;6281706;22;20481;-74
2024/01/14 08:12:10;;;;;;;3.00;2.83;;;2.00;99.90;3.70;100982.00;;;;6281907;22;20161;-73
2024/01/14 08:15:01;;;;;;;7.73;4.53;;;2.10;99.90;3.40;100984.00;;;;6282314;22;20148;-74
2024/01/14 08:17:52;;;;;;;2.20;2.00;;;2.20;99.90;3.20;100979.00;;;;6306003;22;20152;-74
2024/01/14 08:21:01;;;;;;;10.27;6.13;;;2.10;99.90;2.80;100988.00;;;;6285741;22;20642;-74
2024/01/14 08:23:56;;;;;;;1.77;1.67;;;2.10;99.90;4.60;100992.00;;;;6263092;22;20697;-74
2024/01/14 08:26:41;;;;;;;5.47;4.33;;;2.30;99.90;3.10;100971.00;;;;6306948;22;20232;-74
2024/01/14 08:29:50;;;;;;;0.90;0.90;;;2.30;99.90;3.90;100983.00;;;;6307255;22;20217;-74
2024/01/14 08:32:45;;;;;;;3.60;2.30;;;2.40;99.90;3.90;100975.00;;;;6279205;22;20160;-74
2024/01/14 08:35:39;;;;;;;8.50;4.43;;;2.20;99.90;3.10;100972.00;;;;6296950;22;20195;-74
2024/01/14 08:38:39;;;;;;;22.83;9.63;;;2.30;99.90;3.40;100980.00;;;;6280644;22;20589;-74
2024/01/14 08:41:28;;;;;;;6.20;3.80;;;2.20;99.90;3.70;100975.00;;;;6281564;22;20215;-73
2024/01/14 08:44:26;;;;;;;5.23;4.83;;;2.40;99.90;3.00;100967.00;;;;6265550;22;20676;-74
2024/01/14 08:47:09;;;;;;;21.43;11.97;;;2.20;99.90;3.00;100960.00;;;;6272264;22;20203;-75
2024/01/14 08:50:18;;;;;;;16.80;6.70;;;2.10;99.90;3.00;100961.00;;;;6307125;22;20160;-75
2024/01/14 08:53:17;;;;;;;1.20;0.93;;;2.00;99.90;3.30;100935.00;;;;6305592;22;20186;-76
2024/01/14 08:56:12;;;;;;;22.13;11.73;;;2.10;99.90;3.20;100947.00;;;;6306895;22;20164;-76
2024/01/14 08:58:47;;;;;;;0.93;0.93;;;2.20;99.90;3.40;100949.00;;;;6269557;22;20592;-74
2024/01/14 09:01:53;;;;;;;21.30;10.00;;;2.00;99.90;2.90;100958.00;;;;6306688;22;20171;-75
2024/01/14 09:04:48;;;;;;;3.43;3.13;;;2.20;99.90;2.80;100878.00;;;;6202443;22;20199;-75
2024/01/14 09:07:34;;;;;;;1.90;1.80;;;1.90;99.90;3.90;100940.00;;;;6298474;22;20160;-75
2024/01/14 09:11:01;;;;;;;12.63;7.50;;;2.20;99.90;2.70;100905.00;;;;6279933;22;20181;-74
2024/01/14 09:13:32;;;;;;;15.10;9.20;;;2.10;99.90;3.20;100946.00;;;;6306801;22;20163;-74
2024/01/14 09:16:24;;;;;;;4.43;4.03;;;2.10;99.90;3.40;100936.00;;;;6306386;22;20190;-75
2024/01/14 09:19:17;;;;;;;7.63;5.80;;;2.30;99.90;4.20;100931.00;;;;6306601;22;20483;-74
2024/01/14 09:22:21;;;;;;;16.60;10.77;;;2.40;99.90;2.80;100882.00;;;;6306291;22;20244;-74
2024/01/14 09:25:30;;;;;;;9.07;3.93;;;2.10;99.90;3.80;100936.00;;;;6306476;22;20156;-75
2024/01/14 09:28:35;;;;;;;11.37;7.07;;;2.20;99.90;3.00;100935.00;;;;6278909;22;20213;-75
2024/01/14 09:31:33;;;;;;;6.67;5.33;;;2.10;99.90;4.20;100937.00;;;;6306814;22;20224;-74
2024/01/14 09:34:44;;;;;;;2.67;2.47;;;2.20;99.90;4.20;100938.00;;;;6298277;22;20223;-75
2024/01/14 09:38:04;;;;;;;14.30;6.53;;;2.60;99.90;3.70;100917.00;;;;6306513;22;20164;-75
2024/01/14 09:45:17;;;;;;;30.73;6.83;;;2.30;99.90;4.10;100924.00;;;;6257995;22;20301;-75
2024/01/14 09:48:10;;;;;;;11.07;6.37;;;2.60;99.90;3.30;100919.00;;;;6274221;22;20233;-74
2024/01/14 09:51:18;;;;;;;4.63;3.20;;;2.30;99.90;3.90;100929.00;;;;6248553;22;20167;-74
2024/01/14 09:54:06;;;;;;;3.60;3.30;;;2.40;99.90;5.10;100927.00;;;;6280817;22;20301;-73
2024/01/14 09:56:53;;;;;;;4.33;4.03;;;2.70;99.90;4.70;100929.00;;;;6282688;22;20147;-74
2024/01/14 09:59:27;;;;;;;1.53;1.43;;;2.90;99.90;4.10;100918.00;;;;6305856;22;20184;-73
2024/01/14 10:02:19;;;;;;;3.70;2.57;;;2.60;99.90;5.40;100935.00;;;;6254721;22;20194;-73
2024/01/14 10:04:56;;;;;;;2.80;2.00;;;2.90;99.90;5.30;100918.00;;;;6254814;22;20483;-74
2024/01/14 10:07:32;;;;;;;1.43;1.43;;;3.10;99.90;4.20;100915.00;;;;6279726;22;20143;-73
2024/01/14 10:10:18;;;;;;;2.77;2.60;;;2.80;99.90;5.00;100922.00;;;;6280460;22;20573;-73
2024/01/14 10:13:13;;;;;;;3.20;2.63;;;2.80;99.90;5.40;100902.00;;;;6254098;22;20221;-75
2024/01/14 10:16:21;;;;;;;2.87;2.63;;;3.20;99.90;4.80;100921.00;;;;6280031;22;20466;-75
2024/01/14 10:19:16;;;;;;;1.60;1.60;;;3.20;99.90;4.10;100903.00;;;;6255663;22;20217;-75
2024/01/14 10:33:57;;;;;;;1.60;1.17;;;2.30;99.90;3.80;100876.00;;;;5123276;27;21070;-71
2024/01/14 10:36:28;;;;;;;5.87;3.03;;;2.60;99.90;5.00;100872.00;;;;5068439;28;20192;-72
2024/01/14 10:38:59;;;;;;;5.97;2.73;;;2.80;99.90;5.80;100876.00;;;;5069284;28;20217;-77
2024/01/14 10:41:50;;;;;;;4.10;2.63;;;3.30;99.90;4.00;100868.00;;;;5063159;28;20254;-73
2024/01/14 10:44:34;;;;;;;3.37;2.87;;;3.00;99.90;5.20;100860.00;;;;5069129;28;20276;-76
2024/01/14 10:47:36;;;;;;;0.40;0.40;;;3.30;99.90;4.80;100872.00;;;;5070028;28;20262;-76
2024/01/14 10:50:38;;;;;;;1.60;1.53;;;3.30;99.90;5.50;100808.00;;;;5069436;28;20319;-75
2024/01/14 10:53:48;;;;;;;4.53;0.97;;;3.20;99.90;4.70;100844.00;;;;5052498;28;20205;-74
2024/01/14 10:56:53;;;;;;;0.83;0.83;;;3.20;99.90;6.40;100845.00;;;;5074034;28;20199;-76
2024/01/14 10:59:37;;;;;;;3.90;3.20;;;3.70;99.90;5.50;100855.00;;;;5063255;28;20190;-74
2024/01/14 11:06:20;;;;;;;1.73;1.63;;;3.60;99.90;5.90;100837.00;;;;5056056;28;20574;-72
2024/01/14 11:08:51;;;;;;;3.70;2.67;;;3.50;99.90;5.20;100828.00;;;;5064984;28;20648;-69
2024/01/14 11:11:52;;;;;;;1.00;0.87;;;3.30;99.90;6.10;100833.00;;;;5068622;28;20438;-71
2024/01/14 11:14:45;;;;;;;3.90;3.57;;;3.70;99.90;5.10;100829.00;;;;5065898;28;20201;-68
2024/01/14 11:17:40;;;;;;;0.80;0.80;;;3.60;99.90;6.30;100830.00;;;;5066303;28;20221;-68
2024/01/14 11:20:56;;;;;;;1.07;1.07;;;3.70;99.90;5.80;100819.00;;;;5082200;28;20648;-68
2024/01/14 11:23:28;;;;;;;2.50;2.40;;;3.70;99.90;6.20;100786.00;;;;5062120;28;20668;-68
2024/01/14 11:26:15;;;;;;;4.27;4.00;;;3.80;99.90;5.40;100814.00;;;;5068104;28;20182;-70
2024/01/14 11:28:49;;;;;;;0.70;0.70;;;3.80;99.90;5.80;100806.00;;;;5083114;28;20191;-68
2024/01/14 11:32:04;;;;;;;0.63;0.63;;;3.60;99.90;4.70;100797.00;;;;5066772;28;20645;-68
2024/01/14 11:34:48;;;;;;;6.80;4.40;;;3.30;99.90;5.20;100787.00;;;;5079442;28;20191;-68
2024/01/14 11:37:47;;;;;;;0.50;0.50;;;3.30;99.90;6.10;100796.00;;;;5068861;28;20179;-68
2024/01/14 11:40:27;;;;;;;3.37;1.87;;;3.60;99.90;5.50;100792.00;;;;5067718;28;20186;-68
2024/01/14 11:43:07;;;;;;;11.13;6.70;;;3.60;99.90;5.10;100782.00;;;;5064137;28;20269;-68
2024/01/14 11:45:39;;;;;;;1.80;1.70;;;3.50;99.90;5.40;100770.00;;;;5055922;28;20672;-68
2024/01/14 11:48:08;;;;;;;10.67;4.57;;;3.40;99.90;4.80;100783.00;;;;5054093;28;20209;-68
2024/01/14 11:50:40;;;;;;;6.20;4.63;;;3.30;99.90;5.00;100781.00;;;;5055932;28;20272;-68
2024/01/14 11:53:12;;;;;;;5.53;3.57;;;3.40;99.90;4.10;100770.00;;;;5055566;28;20230;-68
2024/01/14 11:55:45;;;;;;;1.27;1.27;;;3.10;99.90;5.10;100757.00;;;;5054401;28;20269;-68
2024/01/14 11:58:19;;;;;;;0.20;0.20;;;3.20;99.90;5.20;100747.00;;;;5050638;28;20534;-68
2024/01/14 12:01:05;;;;;;;4.00;1.13;;;3.10;99.90;6.60;100719.00;;;;5054529;28;20513;-69
2024/01/14 12:04:01;;;;;;;2.73;2.57;;;3.70;99.90;6.50;100769.00;;;;5054259;28;20206;-69
2024/01/14 12:07:08;;;;;;;0.37;0.37;;;4.10;99.90;5.40;100746.00;;;;5068653;28;20651;-68
2024/01/14 12:10:20;;;;;;;2.10;1.73;;;3.70;99.90;4.80;100740.00;;;;5049604;28;20648;-68
2024/01/14 12:13:38;;;;;;;6.97;3.23;;;2.90;99.90;3.70;100731.00;;;;5051745;28;20241;-68
2024/01/14 12:16:35;;;;;;;2.00;1.90;;;2.60;99.90;3.60;100723.00;;;;5051759;28;20593;-68
2024/01/14 12:19:15;;;;;;;2.70;2.50;;;2.40;99.90;5.40;100724.00;;;;5053569;28;20182;-68
2024/01/14 12:22:35;;;;;;;1.70;1.40;;;3.00;99.90;5.50;100674.00;;;;5050395;28;20224;-68
2024/01/14 12:25:39;;;;;;;15.23;8.93;;;3.20;99.90;4.80;100710.00;;;;5053880;28;20230;-69
2024/01/14 12:28:43;;;;;;;1.70;1.60;;;3.30;99.90;4.30;100696.00;;;;5058293;28;20207;-68
2024/01/14 12:31:44;;;;;;;3.60;1.80;;;3.10;99.90;5.40;100698.00;;;;5053313;28;20277;-69
2024/01/14 12:34:49;;;;;;;6.63;2.87;;;3.00;99.90;4.20;100705.00;;;;5053684;28;20728;-69
2024/01/14 12:37:53;;;;;;;14.30;8.57;;;3.00;99.90;3.60;100639.00;;;;5060976;28;20581;-68
2024/01/14 12:40:39;;;;;;;6.73;4.83;;;2.60;99.90;3.10;100681.00;;;;5053381;28;20178;-68
2024/01/14 12:43:09;;;;;;;1.23;1.17;;;2.30;99.90;4.70;100672.00;;;;5050180;28;20183;-67
2024/01/14 12:45:36;;;;;;;7.60;3.07;;;2.60;99.90;3.60;100618.00;;;;5048633;28;20272;-67
2024/01/14 12:48:26;;;;;;;1.70;1.03;;;2.60;99.90;4.00;100634.00;;;;5040830;28;20200;-68
2024/01/14 12:51:11;;;;;;;5.87;2.83;;;2.60;99.90;3.30;100650.00;;;;5052425;28;20182;-75
2024/01/14 12:54:01;;;;;;;16.60;8.07;;;2.40;99.90;3.40;100651.00;;;;5053189;28;20179;-75
2024/01/14 12:56:40;;;;;;;11.33;6.33;;;2.40;99.90;3.40;100649.00;;;;5068803;28;20197;-75
2024/01/14 12:59:06;;;;;;;2.13;2.00;;;2.40;99.90;3.30;100605.00;;;;5069438;28;20178;-77
2024/01/14 13:02:16;;;;;;;15.60;9.37;;;2.30;99.90;3.40;100642.00;;;;5054350;28;20196;-73
2024/01/14 13:04:45;;;;;;;0.40;0.40;;;2.40;99.90;5.00;100631.00;;;;5035552;28;20665;-74
2024/01/14 13:07:21;;;;;;;5.23;3.83;;;2.60;99.90;4.10;100643.00;;;;5047021;28;20183;-74
2024/01/14 13:09:47;;;;;;;3.40;2.57;;;2.70;99.90;3.80;100651.00;;;;5051452;28;20189;-72
2024/01/14 13:12:27;;;;;;;11.00;7.20;;;2.60;99.90;3.20;100627.00;;;;5049740;28;20661;-73
2024/01/14 13:15:00;;;;;;;19.00;9.60;;;2.40;99.90;4.20;100576.00;;;;5057992;28;20190;-73
2024/01/14 13:18:06;;;;;;;14.47;9.50;;;2.60;99.90;3.70;100625.00;;;;5054638;28;20183;-73
2024/01/14 13:20:42;;;;;;;2.93;2.57;;;2.50;99.90;4.40;100611.00;;;;5050869;28;20186;-74
2024/01/14 13:23:43;;;;;;;5.73;3.67;;;2.60;99.90;3.70;100621.00;;;;5050996;28;20240;-74
2024/01/14 13:26:49;;;;;;;12.87;7.93;;;2.50;99.90;3.50;100620.00;;;;5065795;28;20181;-73
2024/01/14 13:30:07;;;;;;;8.90;6.90;;;2.30;99.90;2.70;100614.00;;;;5074482;28;20201;-73
2024/01/14 13:35:55;;;;;;;5.00;3.90;;;2.10;99.90;4.10;100602.00;;;;5056909;28;20193;-73
2024/01/14 13:38:41;;;;;;;0.70;0.70;;;2.30;99.90;4.40;100594.00;;;;5052465;28;20189;-74
2024/01/14 13:41:15;;;;;;;1.20;1.20;;;2.50;99.90;4.30;100588.00;;;;5049761;28;20228;-74
2024/01/14 13:44:01;;;;;;;16.37;10.43;;;2.50;99.90;4.50;100580.00;;;;5049219;28;20182;-74
2024/01/14 13:46:53;;;;;;;6.70;4.00;;;2.80;99.90;5.10;100578.00;;;;5050499;28;20302;-74
2024/01/14 13:49:49;;;;;;;2.30;2.20;;;2.90;99.90;4.00;100538.00;;;;5049387;28;20236;-74
2024/01/14 13:52:46;;;;;;;1.80;1.80;;;2.60;99.90;5.30;100548.00;;;;5064678;28;20277;-74
2024/01/14 13:55:50;;;;;;;0.30;0.30;;;2.90;99.90;5.30;100567.00;;;;5048142;28;20539;-75
2024/01/14 13:58:33;;;;;;;0.83;0.83;;;3.10;99.90;5.60;100488.00;;;;5048960;28;20222;-74
2024/01/14 14:01:05;;;;;;;1.60;1.57;;;3.10;99.90;5.40;100525.00;;;;5051381;28;20176;-74
2024/01/14 14:03:34;;;;;;;2.60;2.43;;;3.20;99.90;6.00;100550.00;;;;5049045;28;20646;-74
2024/01/14 14:06:00;;;;;;;1.63;1.53;;;3.30;99.90;5.60;100547.00;;;;5051787;28;20195;-74
2024/01/14 14:08:40;;;;;;;4.53;2.37;;;3.30;99.90;5.40;100489.00;;;;5053002;28;20183;-77
2024/01/14 14:11:06;;;;;;;12.40;6.73;;;3.30;99.90;5.10;100539.00;;;;5050580;28;20178;-76
2024/01/14 14:13:57;;;;;;;3.80;3.17;;;3.10;99.90;5.20;100537.00;;;;5052922;28;20187;-76
2024/01/14 14:16:23;;;;;;;3.63;3.33;;;3.20;99.90;4.50;100545.00;;;;5040187;28;20187;-76
2024/01/14 14:18:51;;;;;;;5.47;3.47;;;2.90;99.90;4.70;100546.00;;;;5048473;28;20182;-74
2024/01/14 14:21:18;;;;;;;30.57;13.77;;;3.00;99.90;4.20;100524.00;;;;5052693;28;20255;-76
2024/01/14 14:23:44;;;;;;;3.70;3.00;;;2.80;99.90;4.00;100527.00;;;;5048700;28;20668;-75
2024/01/14 14:26:15;;;;;;;16.30;10.57;;;2.60;99.90;3.80;100526.00;;;;5042194;28;20412;-76
2024/01/14 14:28:41;;;;;;;7.03;3.20;;;2.50;99.90;3.70;100526.00;;;;5051436;28;20544;-76
2024/01/14 14:31:12;;;;;;;4.33;3.70;;;2.50;99.90;3.60;100509.00;;;;5052425;28;20186;-77
2024/01/14 14:33:47;;;;;;;1.27;1.20;;;2.40;99.90;4.90;100528.00;;;;5034725;28;20197;-76
2024/01/14 14:36:13;;;;;;;10.30;6.93;;;2.80;99.90;4.00;100512.00;;;;5049516;28;20183;-76
2024/01/14 14:38:45;;;;;;;1.50;1.50;;;2.80;99.90;4.60;100488.00;;;;5052074;28;20181;-76
2024/01/14 14:41:16;;;;;;;8.37;6.70;;;2.70;99.90;3.10;100504.00;;;;5068138;28;20197;-76
2024/01/14 14:43:48;;;;;;;5.97;5.47;;;2.30;99.90;3.60;100498.00;;;;5056295;28;20186;-76
2024/01/14 14:46:27;;;;;;;1.73;0.90;;;2.30;99.90;4.10;100497.00;;;;5050521;28;20184;-76
2024/01/14 14:49:08;;;;;;;7.97;5.03;;;2.50;99.90;4.10;100480.00;;;;5031122;28;20625;-76
2024/01/14 14:51:42;;;;;;;6.93;4.57;;;2.50;99.90;4.00;100501.00;;;;5051290;28;20198;-76
2024/01/14 14:54:26;;;;;;;8.87;5.73;;;2.50;99.90;3.50;100497.00;;;;5048110;28;20188;-76
2024/01/14 14:57:00;;;;;;;7.87;4.83;;;2.20;99.90;4.50;100440.00;;;;5052003;28;20185;-76
2024/01/14 14:59:36;;;;;;;4.30;4.10;;;2.50;99.90;4.80;100495.00;;;;5051451;28;20182;-76
2024/01/14 15:02:14;;;;;;;2.03;1.83;;;2.70;99.90;4.00;100424.00;;;;5051137;28;20186;-76
2024/01/14 15:04:45;;;;;;;18.53;8.80;;;2.60;99.90;3.20;100441.00;;;;5051466;28;20200;-75
2024/01/14 15:07:14;;;;;;;7.03;5.10;;;2.40;99.90;4.00;100489.00;;;;5049774;28;20183;-75
2024/01/14 15:09:46;;;;;;;0.30;0.30;;;2.40;99.90;4.20;100484.00;;;;5051241;28;20716;-75
2024/01/14 15:12:12;;;;;;;0.97;0.97;;;2.40;99.90;4.90;100483.00;;;;5043584;28;20276;-76
2024/01/14 15:15:03;;;;;;;3.93;3.10;;;2.70;99.90;5.00;100472.00;;;;5050975;28;20197;-75
2024/01/14 15:17:29;;;;;;;7.90;5.23;;;2.90;99.90;3.70;100465.00;;;;5031983;28;20202;-75
2024/01/14 15:20:25;;;;;;;11.63;5.03;;;2.70;99.90;4.10;100405.00;;;;5055283;28;20174;-75
2024/01/14 15:23:11;;;;;;;12.13;7.93;;;2.60;99.90;3.60;100437.00;;;;5055529;28;20189;-75
2024/01/14 15:25:42;;;;;;;2.17;1.97;;;2.40;99.90;4.90;100440.00;;;;5067397;28;20212;-76
2024/01/14 15:28:48;;;;;;;0.43;0.43;;;2.70;99.90;4.90;100458.00;;;;5052517;28;20194;-75
2024/01/14 15:31:43;;;;;;;0.30;0.30;;;2.70;99.90;5.40;100432.00;;;;5035501;28;20575;-76
2024/01/14 15:34:47;;;;;;;2.10;1.57;;;2.90;99.90;5.00;100454.00;;;;5051448;28;20189;-76
2024/01/14 15:37:20;;;;;;;3.83;2.50;;;2.90;99.90;5.00;100445.00;;;;5061020;28;20543;-75
2024/01/14 15:39:49;;;;;;;18.10;6.43;;;3.00;99.90;4.00;100464.00;;;;5050658;28;20234;-76
2024/01/14 15:42:35;;;;;;;1.87;1.77;;;2.90;99.90;4.80;100469.00;;;;5050792;28;20266;-75
2024/01/14 15:45:42;;;;;;;14.37;5.60;;;2.90;99.90;4.40;100441.00;;;;5054942;28;20178;-75
2024/01/14 15:48:30;;;;;;;18.27;4.73;;;2.60;99.90;4.10;100434.00;;;;5043132;28;20544;-75
2024/01/14 15:51:22;;;;;;;6.37;5.77;;;2.60;99.90;4.40;100437.00;;;;5037204;28;20328;-76
2024/01/14 15:54:11;;;;;;;9.10;5.53;;;2.70;99.90;4.00;100429.00;;;;5054105;28;20181;-75
2024/01/14 15:57:21;;;;;;;1.03;1.03;;;2.60;99.90;5.40;100441.00;;;;5067806;28;20189;-75
2024/01/14 15:59:58;;;;;;;6.53;3.77;;;3.10;99.90;4.70;100440.00;;;;5052269;28;20186;-75
2024/01/14 16:02:54;;;;;;;4.83;3.47;;;3.10;99.90;4.70;100421.00;;;;5050887;28;20649;-76
2024/01/14 16:06:13;;;;;;;0.30;0.30;;;2.90;99.90;6.10;100426.00;;;;5039335;28;20210;-75
2024/01/14 16:08:39;;;;;;;10.40;7.63;;;3.30;99.90;4.90;100426.00;;;;5053417;28;20192;-75
2024/01/14 16:11:09;;;;;;;3.90;3.60;;;3.30;99.90;5.00;100424.00;;;;5051035;28;20190;-75
2024/01/14 16:13:47;;;;;;;9.30;5.53;;;3.00;99.90;4.70;100426.00;;;;5050022;28;20182;-75
2024/01/14 16:16:19;;;;;;;9.63;9.00;;;3.00;99.90;4.70;100403.00;;;;5047960;28;20190;-75
2024/01/14 16:18:57;;;;;;;0.40;0.40;;;2.80;99.90;5.10;100400.00;;;;5053842;28;20543;-76
2024/01/14 16:21:26;;;;;;;3.07;2.83;;;3.00;99.90;5.50;100391.00;;;;5051555;28;20198;-76
2024/01/14 16:24:12;;;;;;;4.37;3.97;;;3.30;99.90;4.50;100402.00;;;;5050739;28;20210;-75
2024/01/14 16:26:39;;;;;;;1.55;1.50;;;2.90;99.90;4.70;100398.00;;;;5030069;28;20416;-75
2024/01/14 16:29:11;;;;;;;4.03;2.07;;;2.80;99.90;4.50;100401.00;;;;5053726;28;20186;-75
2024/01/14 16:31:39;;;;;;;3.03;2.73;;;2.90;99.90;4.50;100355.00;;;;5053032;28;20243;-75
2024/01/14 16:34:13;;;;;;;18.33;10.97;;;2.70;99.90;4.60;100395.00;;;;5048005;28;20174;-76
2024/01/14 16:36:42;;;;;;;9.93;6.17;;;2.90;99.90;3.70;100389.00;;;;5050310;28;20191;-75
2024/01/14 16:39:12;;;;;;;23.03;10.97;;;2.50;99.90;3.60;100335.00;;;;5050856;28;20179;-76
2024/01/14 16:41:56;;;;;;;11.83;5.10;;;2.20;99.90;4.10;100384.00;;;;5050620;28;20207;-75
2024/01/14 16:44:43;;;;;;;9.10;4.17;;;2.40;99.90;2.80;100399.00;;;;5053569;28;20209;-75
2024/01/14 16:47:40;;;;;;;1.80;1.70;;;2.00;99.90;4.00;100396.00;;;;5052628;28;20667;-75
2024/01/14 16:53:42;;;;;;;3.03;2.80;;;2.40;99.90;4.00;100391.00;;;;5049294;28;20225;-75
2024/01/14 16:56:15;;;;;;;5.43;2.20;;;2.30;99.90;3.40;100376.00;;;;5050029;28;20194;-75
2024/01/14 16:58:52;;;;;;;6.03;4.30;;;2.20;99.90;3.70;100376.00;;;;5051985;28;20547;-75
2024/01/14 17:01:18;;;;;;;4.93;3.30;;;2.10;99.90;3.60;100365.00;;;;5052998;28;20221;-75
2024/01/14 17:04:08;;;;;;;20.50;11.03;;;2.20;99.90;2.90;100382.00;;;;5052756;28;20232;-75
2024/01/14 17:06:39;;;;;;;12.03;2.63;;;2.10;99.90;2.80;100374.00;;;;5047132;28;20265;-75
2024/01/14 17:09:09;;;;;;;6.90;4.37;;;1.90;99.90;2.70;100374.00;;;;5052221;28;20528;-69
2024/01/14 17:15:09;;;;;;;8.43;2.93;;;2.00;99.90;3.60;100363.00;;;;5052877;28;20648;-74
2024/01/14 17:17:57;;;;;;;1.90;1.80;;;2.10;99.90;3.60;100376.00;;;;5044863;28;20197;-73
2024/01/14 17:20:25;;;;;;;14.80;9.10;;;2.10;99.90;4.20;100324.00;;;;5031932;28;20559;-74
2024/01/14 17:23:09;;;;;;;16.77;9.70;;;2.40;99.90;3.00;100364.00;;;;5053280;28;20655;-73
2024/01/14 17:25:38;;;;;;;17.73;12.50;;;2.10;99.90;3.70;100353.00;;;;5046238;28;20208;-73
2024/01/14 17:28:07;;;;;;;18.27;9.03;;;2.20;99.90;2.90;100376.00;;;;5048848;28;20190;-73
2024/01/14 17:30:38;;;;;;;1.73;1.63;;;2.10;99.90;3.20;100377.00;;;;5052844;28;20186;-73
2024/01/14 17:33:51;;;;;;;17.83;10.50;;;2.00;99.90;2.60;100358.00;;;;5048764;28;20209;-73
2024/01/14 17:37:00;;;;;;;6.97;4.77;;;1.90;99.90;3.60;100350.00;;;;5031153;28;20198;-73
2024/01/14 17:40:09;;;;;;;24.13;8.53;;;2.20;99.90;3.10;100355.00;;;;5046025;28;20555;-73
2024/01/14 17:43:16;;;;;;;19.53;7.33;;;2.20;99.90;4.00;100291.00;;;;5032088;28;20205;-73
2024/01/14 17:46:21;;;;;;;5.13;3.17;;;2.20;99.90;3.40;100343.00;;;;5084203;28;20182;-73
2024/01/14 17:49:15;;;;;;;14.33;7.67;;;2.10;99.90;3.70;100345.00;;;;5037437;28;20197;-73
2024/01/14 17:52:24;;;;;;;14.77;8.70;;;2.50;99.90;2.80;100288.00;;;;5031253;28;20642;-73
2024/01/14 17:55:21;;;;;;;16.47;10.63;;;2.10;99.90;2.70;100345.00;;;;5047257;28;20281;-73
2024/01/14 17:58:25;;;;;;;15.87;9.07;;;1.90;99.90;2.90;100343.00;;;;5040978;28;20208;-73
2024/01/14 18:01:25;;;;;;;11.70;7.80;;;2.00;99.90;3.10;100304.00;;;;5044653;28;20266;-73
2024/01/14 18:04:43;;;;;;;40.87;17.73;;;2.00;99.90;2.60;100343.00;;;;5048559;28;20198;-73
2024/01/14 18:07:50;;;;;;;22.70;10.60;;;2.00;99.90;2.40;100352.00;;;;5049123;28;20186;-73
2024/01/14 18:10:36;;;;;;;17.77;8.30;;;1.90;99.90;2.90;100291.00;;;;5044605;28;20754;-73
2024/01/14 18:13:26;;;;;;;8.00;5.30;;;2.00;99.90;2.70;100333.00;;;;5051565;28;20254;-73
2024/01/14 18:16:29;;;;;;;15.63;7.23;;;2.00;99.90;2.70;100339.00;;;;5066939;28;20202;-73
2024/01/14 18:19:22;;;;;;;10.87;8.07;;;2.10;99.90;2.80;100332.00;;;;5051696;28;20182;-73
2024/01/14 18:22:33;;;;;;;15.07;8.40;;;2.00;99.90;2.70;100333.00;;;;5030620;28;20202;-73
2024/01/14 18:25:39;;;;;;;21.00;10.77;;;2.00;99.90;3.00;100335.00;;;;5002726;28;20206;-73
2024/01/14 18:29:00;;;;;;;19.57;9.63;;;2.10;99.90;3.20;100265.00;;;;4991462;28;20240;-73
2024/01/14 18:31:53;;;;;;;5.93;1.40;;;2.10;99.90;3.10;100318.00;;;;4990266;28;20209;-73
2024/01/14 18:35:00;;;;;;;7.40;4.73;;;2.20;99.90;3.70;100310.00;;;;5004091;28;20301;-74
2024/01/14 18:38:14;;;;;;;5.30;3.03;;;2.30;99.90;3.00;100267.00;;;;5002389;28;20203;-73
2024/01/14 18:41:03;;;;;;;16.77;11.43;;;2.10;99.90;3.20;100323.00;;;;5042471;28;20189;-74
2024/01/14 18:44:01;;;;;;;11.63;7.33;;;2.20;99.90;2.90;100311.00;;;;5053089;28;20198;-74
2024/01/14 18:46:33;;;;;;;3.73;1.73;;;2.10;99.90;3.10;100302.00;;;;5050603;28;20228;-73
2024/01/14 18:49:38;;;;;;;24.87;10.67;;;2.10;99.90;3.60;100320.00;;;;5051385;28;20292;-73
2024/01/14 18:52:38;;;;;;;16.17;9.40;;;2.20;99.90;2.60;100317.00;;;;5051881;28;20210;-73
2024/01/14 18:55:30;;;;;;;19.27;10.13;;;2.10;99.90;2.60;100315.00;;;;5045749;28;20551;-73
2024/01/14 18:58:23;;;;;;;19.20;11.13;;;2.00;99.90;3.00;100323.00;;;;5038872;28;20553;-73
2024/01/14 19:01:24;;;;;;;16.87;10.90;;;2.00;99.90;3.00;100333.00;;;;5059167;28;20186;-73
2024/01/14 19:04:12;;;;;;;7.70;4.50;;;2.10;99.90;3.10;100312.00;;;;5035085;28;20239;-74
2024/01/14 19:06:47;;;;;;;20.20;12.90;;;2.10;99.90;3.20;100307.00;;;;5051627;28;20209;-73
2024/01/14 19:09:19;;;;;;;19.70;9.07;;;2.10;99.90;3.60;100322.00;;;;5049212;28;20251;-73
2024/01/14 19:11:56;;;;;;;16.20;9.00;;;2.20;99.90;3.20;100333.00;;;;5037776;28;20205;-73
2024/01/14 19:14:38;;;;;;;14.47;5.97;;;2.20;99.90;3.80;100319.00;;;;5048930;28;20186;-73
2024/01/14 19:17:09;;;;;;;17.07;12.73;;;2.30;99.90;3.50;100330.00;;;;5071724;28;20190;-73
2024/01/14 19:19:59;;;;;;;14.13;8.10;;;2.30;99.90;3.20;100321.00;;;;5054934;28;20186;-73
2024/01/14 19:22:48;;;;;;;10.47;6.97;;;2.20;99.90;3.30;100326.00;;;;5054737;28;20220;-73
2024/01/14 19:25:40;;;;;;;25.10;13.20;;;2.20;99.90;3.10;100326.00;;;;5055055;28;20545;-73
2024/01/14 19:28:12;;;;;;;16.57;9.17;;;2.20;99.90;3.00;100310.00;;;;5051550;28;20179;-73
2024/01/14 19:30:57;;;;;;;9.30;6.90;;;2.20;99.90;3.00;100310.00;;;;5046985;28;20802;-74
2024/01/14 19:33:26;;;;;;;21.60;10.50;;;2.30;99.90;3.10;100322.00;;;;5040585;28;20237;-73
2024/01/14 19:35:57;;;;;;;17.63;8.50;;;2.20;99.90;3.80;100303.00;;;;5054874;28;20184;-73
2024/01/14 19:38:32;;;;;;;6.33;4.23;;;2.40;99.90;3.40;100266.00;;;;5054981;28;20198;-73
2024/01/14 19:41:07;;;;;;;31.77;13.97;;;2.40;99.90;3.40;100269.00;;;;5055762;28;20200;-73
2024/01/14 19:43:42;;;;;;;5.83;5.43;;;2.40;99.90;3.50;100310.00;;;;5039409;28;20196;-73
2024/01/14 19:46:31;;;;;;;11.83;8.37;;;2.40;99.90;3.40;100302.00;;;;5043085;28;20644;-73
2024/01/14 19:49:00;;;;;;;18.57;9.20;;;2.60;99.90;4.10;100301.00;;;;5037878;28;20558;-73
2024/01/14 19:51:47;;;;;;;11.23;5.90;;;2.70;99.90;4.10;100233.00;;;;5045677;28;20194;-73
2024/01/14 19:54:24;;;;;;;7.27;5.43;;;2.80;99.90;4.20;100293.00;;;;5041105;28;20217;-73
2024/01/14 19:56:58;;;;;;;4.03;3.70;;;2.70;99.90;4.10;100285.00;;;;5071035;28;20189;-73
2024/01/14 19:59:36;;;;;;;5.87;4.87;;;2.60;99.90;3.40;100264.00;;;;5054639;28;20189;-73